Time;durP1;ratioP1;P1;durP2;ratioP2;P2;SDS_P1;SDS_P2;PMS_P1;PMS_P2;Temp;Humidity;BMP_temperature;BMP_pressure;BME280_temperature;BME280_humidity;BME280_pressure;Samples;Min_cycle;Max_cycle;Signal;HPM_P1;HPM_P2
2022/10/19 00:00:33;;;;;;;14.33;10.63;;;;;;;13.52;100.00;101100.39;2818504;83;20972;-61
2022/10/19 00:04:36;;;;;;;19.40;12.70;;;;;;;13.38;100.00;101101.98;2811057;82;21012;-61
2022/10/19 00:08:44;;;;;;;14.70;12.85;;;;;;;13.33;100.00;101102.82;2818669;83;20997;-61
2022/10/19 00:12:49;;;;;;;14.87;11.68;;;;;;;13.37;100.00;101102.45;2825466;83;21047;-62
2022/10/19 00:16:57;;;;;;;18.35;12.58;;;;;;;13.28;100.00;101105.39;2798485;83;21040;-61
2022/10/19 00:21:05;;;;;;;18.50;11.18;;;;;;;13.25;100.00;101108.31;2750803;82;20972;-60
2022/10/19 00:25:12;;;;;;;14.95;11.80;;;;;;;13.26;100.00;101110.00;2826686;83;21544;-62
2022/10/19 00:29:14;;;;;;;20.88;13.83;;;;;;;13.19;100.00;101108.81;2771415;84;20976;-61
2022/10/19 00:37:35;;;;;;;19.57;12.78;;;;;;;13.28;100.00;101102.71;2881306;82;20972;-61
2022/10/19 00:41:38;;;;;;;17.80;13.03;;;;;;;13.24;100.00;101109.28;2834231;82;21035;-61
2022/10/19 00:45:44;;;;;;;20.25;12.53;;;;;;;13.22;100.00;101103.22;2783270;83;21546;-61
2022/10/19 00:49:50;;;;;;;16.42;12.03;;;;;;;13.17;100.00;101099.21;2797234;83;20996;-61
2022/10/19 00:53:57;;;;;;;15.78;11.45;;;;;;;12.95;100.00;101109.77;2858576;82;21009;-61
2022/10/19 00:58:00;;;;;;;19.37;12.82;;;;;;;12.82;100.00;101107.22;2848881;82;20997;-61
2022/10/19 01:02:05;;;;;;;20.10;12.75;;;;;;;12.80;100.00;101104.32;2830957;82;20977;-61
2022/10/19 01:06:07;;;;;;;23.07;12.80;;;;;;;12.77;100.00;101093.39;2796286;84;21391;-60
2022/10/19 01:10:59;;;;;;;14.65;11.80;;;;;;;12.66;100.00;101086.22;2856994;82;21056;-62
2022/10/19 01:15:58;;;;;;;19.98;12.60;;;;;;;12.60;100.00;101091.19;2796973;83;21099;-60
2022/10/19 01:20:46;;;;;;;22.45;12.68;;;;;;;12.35;100.00;101103.26;2834284;83;21072;-61
2022/10/19 01:25:07;;;;;;;20.60;14.47;;;;;;;12.35;100.00;101093.92;2793212;82;21009;-61
2022/10/19 01:29:23;;;;;;;18.75;12.45;;;;;;;12.47;100.00;101080.61;2846515;82;21077;-63
2022/10/19 01:33:44;;;;;;;21.73;15.45;;;;;;;12.60;100.00;101077.84;2783437;83;21324;-61
2022/10/19 01:38:02;;;;;;;24.60;14.40;;;;;;;12.68;100.00;101082.11;2731543;86;21052;-61
2022/10/19 01:42:30;;;;;;;18.20;13.62;;;;;;;12.71;100.00;101079.20;2751001;84;21062;-62
2022/10/19 01:46:36;;;;;;;18.87;13.18;;;;;;;12.74;100.00;101082.95;2746786;84;21065;-61
2022/10/19 01:51:16;;;;;;;15.70;12.60;;;;;;;12.75;100.00;101075.78;2747191;85;21087;-62
2022/10/19 01:55:19;;;;;;;27.35;13.75;;;;;;;12.77;100.00;101084.52;2763528;84;21028;-61
2022/10/19 01:59:29;;;;;;;21.82;14.33;;;;;;;12.76;100.00;101078.81;2779028;84;21037;-62
2022/10/19 02:03:33;;;;;;;21.02;14.40;;;;;;;12.82;100.00;101078.35;2789042;83;21052;-62
2022/10/19 02:07:38;;;;;;;21.37;15.98;;;;;;;12.88;100.00;101073.84;2794061;83;21046;-62
2022/10/19 02:11:55;;;;;;;19.47;13.87;;;;;;;12.95;100.00;101071.55;2806150;83;21076;-62
2022/10/19 02:16:00;;;;;;;20.80;13.75;;;;;;;12.90;100.00;101067.06;2848906;82;21023;-62
2022/10/19 02:20:05;;;;;;;14.98;12.10;;;;;;;12.62;100.00;101078.09;2828011;82;21048;-62
2022/10/19 02:24:07;;;;;;;16.53;13.20;;;;;;;12.49;100.00;101072.00;2784758;82;21041;-62
2022/10/19 02:28:08;;;;;;;18.48;14.65;;;;;;;12.38;100.00;101072.84;2845489;82;21427;-62
2022/10/19 02:32:11;;;;;;;18.85;14.98;;;;;;;12.26;100.00;101070.13;2785755;83;21126;-63
2022/10/19 02:36:15;;;;;;;20.77;15.25;;;;;;;12.26;100.00;101081.30;2816368;83;21008;-61
2022/10/19 02:40:17;;;;;;;19.35;15.30;;;;;;;12.27;100.00;101075.00;2834903;82;21008;-62
2022/10/19 02:44:48;;;;;;;28.00;18.98;;;;;;;12.34;100.00;101071.37;2844563;82;21090;-61
2022/10/19 02:48:50;;;;;;;20.72;14.23;;;;;;;12.39;100.00;101073.20;2801438;83;21046;-63
2022/10/19 02:52:59;;;;;;;18.65;14.85;;;;;;;12.44;100.00;101071.02;2798346;82;21051;-61
2022/10/19 02:57:03;;;;;;;27.98;14.85;;;;;;;12.48;100.00;101060.97;2810206;82;21012;-62
2022/10/19 03:01:05;;;;;;;22.48;16.07;;;;;;;12.50;100.00;101068.36;2790214;83;21059;-62
2022/10/19 03:05:12;;;;;;;28.83;17.35;;;;;;;12.51;100.00;101067.39;2808762;82;21494;-61
2022/10/19 03:09:13;;;;;;;20.60;14.40;;;;;;;12.51;100.00;101064.72;2844973;81;20980;-60
2022/10/19 03:13:15;;;;;;;22.48;17.25;;;;;;;12.46;100.00;101070.91;2814924;83;21059;-60
2022/10/19 03:17:16;;;;;;;25.20;16.52;;;;;;;12.56;100.00;101073.22;2768196;83;21051;-60
2022/10/19 03:21:18;;;;;;;23.87;16.48;;;;;;;12.50;100.00;101075.90;2821042;82;20969;-63
2022/10/19 03:25:20;;;;;;;21.55;12.82;;;;;;;12.46;100.00;101074.91;2821306;83;21016;-60
2022/10/19 03:29:21;;;;;;;20.65;16.60;;;;;;;12.45;100.00;101080.72;2795962;83;20988;-66
2022/10/19 03:33:23;;;;;;;22.02;14.87;;;;;;;12.47;100.00;101080.61;2812154;83;21111;-66
2022/10/19 03:37:24;;;;;;;24.87;17.00;;;;;;;12.43;100.00;101075.52;2810866;83;21035;-65
2022/10/19 03:41:28;;;;;;;25.00;15.95;;;;;;;12.41;100.00;101078.80;2815382;82;21043;-66
2022/10/19 03:45:29;;;;;;;22.17;14.68;;;;;;;12.38;100.00;101077.70;2814216;83;21042;-66
2022/10/19 03:50:04;;;;;;;28.90;12.78;;;;;;;12.35;100.00;101075.24;2811861;82;21118;-66
2022/10/19 03:54:13;;;;;;;24.67;13.75;;;;;;;12.30;100.00;101069.42;2788610;83;21150;-66
2022/10/19 03:58:23;;;;;;;20.20;13.88;;;;;;;12.28;100.00;101068.22;2811963;83;21003;-66
2022/10/19 04:02:24;;;;;;;17.25;12.45;;;;;;;12.21;100.00;101064.80;2831272;83;20996;-66
2022/10/19 04:06:34;;;;;;;16.40;12.13;;;;;;;12.17;100.00;101066.84;2851192;83;21037;-65
2022/10/19 04:10:35;;;;;;;16.45;11.73;;;;;;;12.13;100.00;101062.22;2845235;83;21047;-67
2022/10/19 04:14:37;;;;;;;16.45;11.60;;;;;;;12.08;100.00;101075.53;2761131;81;20971;-67
2022/10/19 04:18:38;;;;;;;20.57;11.00;;;;;;;12.04;100.00;101084.27;2880415;81;21034;-66
2022/10/19 04:22:40;;;;;;;14.13;10.43;;;;;;;12.04;100.00;101084.27;2822188;82;21078;-66
2022/10/19 04:26:48;;;;;;;17.60;7.85;;;;;;;12.00;100.00;101089.44;2797142;83;21335;-68
2022/10/19 04:30:50;;;;;;;16.77;9.58;;;;;;;11.97;100.00;101090.98;2832060;82;21051;-67
2022/10/19 04:34:51;;;;;;;15.00;9.50;;;;;;;11.91;100.00;101091.45;2763452;85;21039;-67
2022/10/19 04:38:52;;;;;;;10.68;6.97;;;;;;;11.84;100.00;101085.25;2828770;83;21051;-68
2022/10/19 04:42:54;;;;;;;15.98;8.63;;;;;;;11.92;100.00;101095.81;2824305;83;20996;-67
2022/10/19 04:46:55;;;;;;;15.75;8.40;;;;;;;11.81;100.00;101094.81;2794585;83;21083;-65
2022/10/19 04:50:56;;;;;;;17.48;9.85;;;;;;;11.77;100.00;101094.64;2764200;85;21102;-65
2022/10/19 04:55:00;;;;;;;21.20;8.98;;;;;;;11.76;100.00;101090.78;2785571;83;21012;-66
2022/10/19 04:59:01;;;;;;;14.85;8.48;;;;;;;11.64;100.00;101088.05;2833103;83;21038;-66
2022/10/19 05:03:02;;;;;;;13.78;8.03;;;;;;;11.61;100.00;101093.61;2788080;84;21055;-66
2022/10/19 05:07:03;;;;;;;12.47;9.18;;;;;;;11.53;100.00;101088.00;2815935;82;21009;-65
2022/10/19 05:11:09;;;;;;;10.48;6.20;;;;;;;11.42;100.00;101094.12;2800423;82;21043;-65
2022/10/19 05:15:10;;;;;;;11.48;7.80;;;;;;;11.36;100.00;101086.55;2870092;82;21055;-65
2022/10/19 05:19:14;;;;;;;11.65;7.33;;;;;;;11.42;100.00;101087.45;2822016;82;21086;-65
2022/10/19 05:23:16;;;;;;;23.73;8.08;;;;;;;11.34;100.00;101095.13;2782086;84;20992;-65
2022/10/19 05:27:18;;;;;;;16.67;9.53;;;;;;;11.32;100.00;101094.40;2798969;83;20998;-65
2022/10/19 05:31:20;;;;;;;18.67;8.95;;;;;;;11.29;100.00;101092.33;2790108;83;21032;-65
2022/10/19 05:35:21;;;;;;;17.20;9.18;;;;;;;11.41;100.00;101092.42;2830653;83;21027;-65
2022/10/19 05:39:22;;;;;;;13.45;7.70;;;;;;;11.38;100.00;101104.59;2812436;82;21064;-65
2022/10/19 05:43:23;;;;;;;13.88;9.18;;;;;;;11.36;100.00;101106.06;2845103;83;21579;-65
2022/10/19 05:47:24;;;;;;;10.63;8.10;;;;;;;11.48;100.00;101104.78;2825984;82;20988;-66
2022/10/19 05:51:27;;;;;;;12.33;8.40;;;;;;;11.45;100.00;101109.88;2826509;83;20980;-65
2022/10/19 05:55:28;;;;;;;13.70;6.30;;;;;;;11.44;100.00;101112.17;2794607;83;21459;-65
2022/10/19 05:59:29;;;;;;;18.85;7.67;;;;;;;11.45;100.00;101116.53;2835250;83;21891;-65
2022/10/19 06:03:31;;;;;;;9.70;6.47;;;;;;;11.40;100.00;101118.69;2850101;82;21033;-65
2022/10/19 06:07:32;;;;;;;12.07;6.90;;;;;;;11.46;100.00;101123.56;2795889;83;21126;-65
2022/10/19 06:11:40;;;;;;;9.25;6.15;;;;;;;11.41;100.00;101121.72;2815855;83;21021;-65
2022/10/19 06:15:41;;;;;;;13.75;5.87;;;;;;;11.47;100.00;101121.73;2835814;82;21478;-65
2022/10/19 06:19:43;;;;;;;7.30;5.08;;;;;;;11.51;100.00;101116.58;2833170;82;21039;-65
2022/10/19 06:23:46;;;;;;;6.60;5.15;;;;;;;11.50;100.00;101130.36;2784536;85;21024;-65
2022/10/19 06:27:48;;;;;;;13.53;5.08;;;;;;;11.55;100.00;101141.53;2807864;83;21174;-65
2022/10/19 06:31:59;;;;;;;6.35;4.28;;;;;;;11.51;100.00;101145.39;2797763;82;21135;-65
2022/10/19 06:36:31;;;;;;;11.73;6.47;;;;;;;11.55;100.00;101143.36;2857164;81;21091;-65
2022/10/19 06:40:34;;;;;;;16.20;5.60;;;;;;;11.55;100.00;101154.02;2822810;83;21040;-65
2022/10/19 06:44:35;;;;;;;9.18;5.65;;;;;;;11.58;100.00;101149.80;2807813;83;21039;-65
2022/10/19 06:48:37;;;;;;;20.77;7.33;;;;;;;11.61;100.00;101154.90;2814013;83;21332;-65
2022/10/19 06:52:39;;;;;;;9.33;5.35;;;;;;;11.65;100.00;101152.37;2804759;78;70443;-91
2022/10/19 06:56:40;;;;;;;15.60;4.90;;;;;;;11.64;100.00;101156.50;2830936;82;21048;-91
2022/10/19 07:00:42;;;;;;;11.78;5.58;;;;;;;11.68;100.00;101160.14;2797862;82;21037;-91
2022/10/19 07:04:43;;;;;;;5.37;4.15;;;;;;;11.75;100.00;101159.22;2786173;83;21083;-91
2022/10/19 07:08:44;;;;;;;5.55;3.22;;;;;;;11.73;100.00;101165.64;2785943;83;21055;-91
2022/10/19 07:12:45;;;;;;;5.60;4.17;;;;;;;11.69;100.00;101171.66;2797414;83;21073;-91
2022/10/19 07:16:48;;;;;;;11.48;4.55;;;;;;;11.79;100.00;101168.72;2792780;82;21031;-91
2022/10/19 07:20:57;;;;;;;9.83;5.22;;;;;;;11.75;100.00;101161.88;2773575;83;21052;-91
2022/10/19 07:24:59;;;;;;;8.30;4.47;;;;;;;11.75;100.00;101161.88;2772467;85;21602;-92
2022/10/19 07:29:01;;;;;;;14.13;4.70;;;;;;;11.87;100.00;101174.79;2820973;82;21479;-92
2022/10/19 07:33:03;;;;;;;8.30;4.28;;;;;;;11.96;100.00;101186.59;2794613;83;21086;-92
2022/10/19 07:37:05;;;;;;;7.42;4.35;;;;;;;12.03;100.00;101187.03;2764418;85;21562;-91
2022/10/19 07:41:11;;;;;;;7.50;4.05;;;;;;;12.11;100.00;101186.00;2822285;83;21489;-91
2022/10/19 07:45:13;;;;;;;7.03;2.92;;;;;;;12.13;100.00;101190.23;2797314;83;21059;-92
2022/10/19 07:49:15;;;;;;;8.25;3.45;;;;;;;12.19;100.00;101189.44;2791504;83;21162;-91
2022/10/19 07:53:16;;;;;;;11.85;4.25;;;;;;;12.15;100.00;101191.47;2873827;81;21554;-91
2022/10/19 07:57:18;;;;;;;7.47;4.00;;;;;;;12.20;100.00;101196.47;2848346;81;21104;-91
2022/10/19 08:01:27;;;;;;;5.05;2.98;;;;;;;12.32;100.00;101198.20;2874338;80;21097;-91
2022/10/19 08:05:28;;;;;;;12.18;3.30;;;;;;;12.36;100.00;101201.00;2862429;81;21065;-92
2022/10/19 08:09:29;;;;;;;5.60;2.22;;;;;;;12.39;100.00;101203.47;2866862;81;20989;-91
2022/10/19 08:13:30;;;;;;;14.13;2.75;;;;;;;12.48;100.00;101198.39;2814711;82;21004;-89
2022/10/19 08:17:35;;;;;;;5.42;3.15;;;;;;;12.50;100.00;101200.45;2865421;81;21625;-91
2022/10/19 08:21:39;;;;;;;7.80;3.20;;;;;;;12.55;100.00;101190.27;2896632;80;21043;-92
2022/10/19 08:25:40;;;;;;;5.72;4.12;;;;;;;12.50;100.00;101191.98;2864698;81;21015;-92
2022/10/19 08:29:41;;;;;;;6.92;4.17;;;;;;;12.59;100.00;101194.91;2859311;81;21075;-92
2022/10/19 08:33:43;;;;;;;14.75;6.45;;;;;;;12.62;100.00;101196.00;2850100;80;20971;-91
2022/10/19 08:37:44;;;;;;;4.90;2.85;;;;;;;12.73;100.00;101203.19;2879403;81;21048;-92
2022/10/19 08:42:03;;;;;;;10.30;3.62;;;;;;;12.74;100.00;101200.88;2818435;82;21047;-91
2022/10/19 08:46:29;;;;;;;7.62;2.92;;;;;;;12.80;100.00;101196.43;2777583;84;21039;-92
2022/10/19 08:50:41;;;;;;;3.00;2.75;;;;;;;12.96;100.00;101189.41;2841948;80;21086;-92
2022/10/19 08:54:51;;;;;;;3.37;2.55;;;;;;;13.03;100.00;101191.95;2852215;80;21006;-91
2022/10/19 08:59:07;;;;;;;4.03;2.40;;;;;;;13.06;100.00;101190.88;2866675;79;21079;-91
2022/10/19 09:03:25;;;;;;;4.25;3.25;;;;;;;13.16;100.00;101192.34;2844572;81;21772;-91
2022/10/19 09:07:35;;;;;;;6.25;4.50;;;;;;;13.26;100.00;101193.30;2864291;80;21028;-92
2022/10/19 09:11:42;;;;;;;6.40;3.10;;;;;;;13.21;100.00;101192.35;2915706;80;21031;-90
2022/10/19 09:15:47;;;;;;;6.37;4.72;;;;;;;13.22;100.00;101200.73;2864864;80;21577;-91
2022/10/19 09:19:48;;;;;;;7.62;4.15;;;;;;;13.24;100.00;101198.78;2878401;79;21447;-91
2022/10/19 09:23:58;;;;;;;4.17;2.52;;;;;;;13.45;100.00;101195.41;2872696;82;21322;-91
2022/10/19 09:28:23;;;;;;;6.97;2.80;;;;;;;13.42;99.31;101200.97;2878571;80;21055;-92
2022/10/19 09:32:37;;;;;;;5.12;3.45;;;;;;;13.54;98.70;101204.02;2759243;83;21101;-90
2022/10/19 09:36:46;;;;;;;3.90;2.55;;;;;;;13.55;99.77;101212.40;2775269;84;21681;-92
2022/10/19 09:40:47;;;;;;;3.55;2.12;;;;;;;13.65;99.24;101211.67;2751754;83;21050;-91
2022/10/19 09:44:51;;;;;;;2.85;2.00;;;;;;;13.69;97.77;101219.81;2735422;85;21053;-91
2022/10/19 09:48:53;;;;;;;3.37;2.08;;;;;;;13.59;96.29;101225.05;2761033;83;21625;-91
2022/10/19 09:53:04;;;;;;;1.50;1.40;;;;;;;13.63;98.23;101222.98;2686144;85;21082;-91
2022/10/19 09:57:05;;;;;;;1.92;1.60;;;;;;;13.61;97.69;101229.77;2720019;83;21070;-90
2022/10/19 10:01:08;;;;;;;5.28;2.25;;;;;;;13.60;95.82;101232.09;2790268;83;21059;-91
2022/10/19 10:05:14;;;;;;;2.52;1.98;;;;;;;13.52;93.80;101235.37;2705906;86;21090;-91
2022/10/19 10:09:20;;;;;;;2.95;1.95;;;;;;;13.49;94.60;101242.30;2853454;80;21061;-91
2022/10/19 10:13:26;;;;;;;6.55;1.67;;;;;;;13.50;94.33;101238.66;2871954;80;21083;-91
2022/10/19 10:17:29;;;;;;;;;;;;;;;13.61;95.70;101239.64;2854223;81;21037;-91
2022/10/19 10:21:35;;;;;;;7.83;2.15;;;;;;;13.64;93.99;101234.04;2824199;82;20154;-91
2022/10/19 10:25:36;;;;;;;9.63;2.15;;;;;;;13.74;92.85;101231.48;2830776;82;21424;-91
2022/10/19 10:29:40;;;;;;;2.62;1.42;;;;;;;13.83;94.51;101232.92;2853152;81;21039;-91
2022/10/19 10:33:41;;;;;;;3.00;1.70;;;;;;;13.99;91.72;101237.03;2839103;81;21054;-91
2022/10/19 10:37:45;;;;;;;1.57;1.45;;;;;;;14.13;94.13;101234.05;2853585;81;21129;-91
2022/10/19 10:41:48;;;;;;;4.70;1.50;;;;;;;14.11;89.04;101227.98;2875643;80;21628;-91
2022/10/19 10:45:51;;;;;;;4.85;2.17;;;;;;;14.08;86.04;101226.91;2863668;80;21070;-89
2022/10/19 10:50:01;;;;;;;7.55;1.95;;;;;;;14.00;83.92;101212.81;2867581;80;21020;-90
2022/10/19 10:54:22;;;;;;;4.30;2.27;;;;;;;13.91;88.69;101212.72;2834879;80;21594;-90
2022/10/19 10:58:35;;;;;;;5.40;1.87;;;;;;;13.91;87.24;101208.23;2851034;80;21575;-90
2022/10/19 11:03:01;;;;;;;2.85;1.72;;;;;;;13.91;92.36;101215.39;2869807;81;21048;-91
2022/10/19 11:07:16;;;;;;;2.12;1.37;;;;;;;13.68;88.54;101214.09;2877861;81;21040;-90
2022/10/19 11:11:22;;;;;;;4.67;3.58;;;;;;;13.34;94.83;101216.28;2862752;80;21028;-90
2022/10/19 11:15:53;;;;;;;6.30;3.10;;;;;;;12.89;95.74;101226.91;2814392;81;21003;-90
2022/10/19 11:19:54;;;;;;;5.83;1.90;;;;;;;12.84;98.80;101225.92;2854591;80;22314;-91
2022/10/19 11:24:29;;;;;;;3.17;2.10;;;;;;;12.81;96.19;101232.84;2834799;81;21558;-91
2022/10/19 11:28:48;;;;;;;3.90;2.67;;;;;;;12.84;97.02;101232.59;2859948;81;21039;-91
2022/10/19 11:33:00;;;;;;;9.35;1.50;;;;;;;12.98;100.00;101237.73;2858788;80;21019;-90
2022/10/19 11:37:27;;;;;;;6.50;1.72;;;;;;;13.10;99.97;101227.92;2884080;80;21020;-90
2022/10/19 11:42:12;;;;;;;4.17;1.45;;;;;;;13.27;100.00;101220.41;2800577;81;21036;-91
2022/10/19 11:46:28;;;;;;;6.15;1.80;;;;;;;13.18;96.56;101235.34;2793777;82;21573;-90
2022/10/19 11:50:58;;;;;;;1.52;1.35;;;;;;;13.13;93.21;101236.16;2841934;81;21076;-90
2022/10/19 11:55:14;;;;;;;3.02;1.30;;;;;;;13.09;93.45;101232.90;2873094;80;21098;-90
2022/10/19 11:59:50;;;;;;;2.60;1.02;;;;;;;12.99;99.43;101235.43;2817389;82;21146;-91
2022/10/19 12:04:19;;;;;;;1.90;0.90;;;;;;;12.89;99.05;101233.09;2806661;82;21175;-91
2022/10/19 12:08:43;;;;;;;3.08;1.10;;;;;;;12.71;98.81;101233.52;2823580;83;21555;-91
2022/10/19 12:12:52;;;;;;;6.08;2.00;;;;;;;12.71;97.85;101224.68;2815166;82;21055;-91
2022/10/19 12:16:58;;;;;;;1.82;1.42;;;;;;;12.82;100.00;101227.36;2774740;83;22344;-91
2022/10/19 12:21:29;;;;;;;2.67;1.60;;;;;;;12.84;98.43;101221.92;2810636;82;21066;-91
2022/10/19 12:25:32;;;;;;;4.75;2.00;;;;;;;12.90;97.22;101225.44;2747122;84;21415;-90
2022/10/19 12:29:39;;;;;;;8.03;2.45;;;;;;;13.04;99.00;101220.86;2833929;81;20983;-90
2022/10/19 12:34:09;;;;;;;4.92;1.92;;;;;;;13.07;96.91;101216.61;2824348;82;21053;-90
2022/10/19 12:38:15;;;;;;;3.30;1.32;;;;;;;13.21;99.48;101219.06;2787397;82;21113;-89
2022/10/19 12:42:34;;;;;;;4.17;2.05;;;;;;;13.17;96.99;101225.62;2842335;80;21103;-90
2022/10/19 12:46:43;;;;;;;6.05;2.33;;;;;;;13.18;98.04;101223.80;2846228;81;21074;-90
2022/10/19 12:50:56;;;;;;;4.58;2.12;;;;;;;13.24;97.31;101226.84;2807935;82;21057;-90
2022/10/19 12:55:17;;;;;;;3.65;1.32;;;;;;;13.34;99.43;101227.44;2827430;81;21114;-90
2022/10/19 12:59:36;;;;;;;2.47;0.85;;;;;;;13.34;96.69;101230.11;2855767;81;21046;-90
2022/10/19 13:03:41;;;;;;;1.35;0.88;;;;;;;13.18;96.19;101218.45;2836691;82;21026;-90
2022/10/19 13:07:47;;;;;;;3.90;1.20;;;;;;;13.09;95.35;101231.56;2867999;81;21130;-90
2022/10/19 13:12:17;;;;;;;2.22;1.45;;;;;;;12.97;96.82;101229.36;2857920;81;21027;-90
2022/10/19 13:16:32;;;;;;;2.47;1.17;;;;;;;13.00;97.44;101225.58;2861297;81;21071;-88
2022/10/19 13:20:50;;;;;;;1.32;1.05;;;;;;;12.96;96.22;101222.29;2722546;85;21097;-88
2022/10/19 13:25:20;;;;;;;1.87;0.72;;;;;;;13.08;97.49;101223.66;2725678;84;21644;-87
2022/10/19 13:29:39;;;;;;;2.25;1.57;;;;;;;13.18;94.18;101211.30;2750795;84;21072;-87
2022/10/19 13:33:46;;;;;;;1.98;1.27;;;;;;;13.25;95.04;101211.64;2707700;85;21058;-88
2022/10/19 13:38:19;;;;;;;1.70;1.57;;;;;;;13.37;94.84;101212.52;2722674;85;21099;-90
2022/10/19 13:42:26;;;;;;;6.40;2.52;;;;;;;13.42;93.66;101225.02;2720861;85;21086;-91
2022/10/19 13:46:35;;;;;;;3.83;1.57;;;;;;;13.50;91.79;101219.11;2686510;86;21111;-91
2022/10/19 13:50:50;;;;;;;7.97;1.85;;;;;;;13.45;92.14;101226.14;2718237;85;21196;-91
2022/10/19 13:55:00;;;;;;;4.85;1.20;;;;;;;13.47;93.07;101220.19;2706311;85;21176;-92
2022/10/19 13:59:26;;;;;;;1.77;1.27;;;;;;;13.38;95.11;101227.58;2837606;81;21550;-92
2022/10/19 14:03:54;;;;;;;4.03;2.30;;;;;;;13.29;94.77;101216.63;2851967;81;21053;-93
2022/10/19 14:08:18;;;;;;;5.95;3.37;;;;;;;13.31;96.62;101208.51;2855085;82;21047;-92
2022/10/19 14:12:29;;;;;;;7.65;1.92;;;;;;;13.32;97.60;101206.67;2852333;81;21060;-93
2022/10/19 14:16:30;;;;;;;8.60;2.37;;;;;;;13.42;96.56;101195.63;2807376;82;21078;-93
2022/10/19 14:20:36;;;;;;;2.58;1.60;;;;;;;13.49;95.69;101190.17;2862542;82;21060;-92
2022/10/19 14:24:37;;;;;;;;;;;;;;;13.27;91.72;101189.69;2874552;81;21085;-92
2022/10/19 14:28:39;;;;;;;4.47;1.15;;;;;;;12.97;93.11;101187.97;2823637;82;20136;-92
2022/10/19 14:32:40;;;;;;;5.20;1.87;;;;;;;12.90;96.06;101178.71;2845206;80;21062;-91
2022/10/19 14:36:48;;;;;;;3.22;1.45;;;;;;;12.92;96.85;101179.44;2863361;81;20986;-91
2022/10/19 14:40:49;;;;;;;4.33;1.80;;;;;;;12.82;97.60;101183.31;2842893;82;21064;-90
2022/10/19 14:44:50;;;;;;;7.40;2.40;;;;;;;12.75;97.35;101179.89;2823883;82;21141;-92
2022/10/19 14:48:51;;;;;;;7.75;1.90;;;;;;;12.70;97.84;101193.12;2844719;80;21047;-92
2022/10/19 14:52:57;;;;;;;2.47;1.52;;;;;;;12.64;97.07;101188.73;2798471;82;21036;-92
2022/10/19 14:57:20;;;;;;;3.95;1.35;;;;;;;12.44;98.73;101192.42;2809850;83;21222;-92
2022/10/19 15:01:21;;;;;;;4.92;1.67;;;;;;;12.41;99.07;101196.66;2752922;85;21042;-91
2022/10/19 15:05:31;;;;;;;2.17;1.67;;;;;;;12.32;100.00;101196.87;2877503;80;21040;-92
2022/10/19 15:09:37;;;;;;;2.02;1.77;;;;;;;12.23;100.00;101193.07;2854314;80;21616;-91
2022/10/19 15:13:41;;;;;;;2.87;1.75;;;;;;;12.28;100.00;101191.41;2861735;80;21538;-92
2022/10/19 15:17:53;;;;;;;3.77;2.37;;;;;;;12.21;100.00;101191.50;2797595;82;21069;-92
2022/10/19 15:22:19;;;;;;;3.35;1.92;;;;;;;12.13;100.00;101186.73;2796141;81;21092;-92
2022/10/19 15:26:27;;;;;;;3.47;1.70;;;;;;;12.10;100.00;101187.80;2873101;81;21024;-92
2022/10/19 15:30:31;;;;;;;4.35;2.35;;;;;;;12.04;100.00;101189.59;2874404;80;21075;-90
2022/10/19 15:34:33;;;;;;;3.83;2.52;;;;;;;12.02;100.00;101196.86;2838856;80;21119;-91
2022/10/19 15:38:35;;;;;;;8.25;4.87;;;;;;;11.99;100.00;101194.39;2839111;82;21056;-91
2022/10/19 15:42:43;;;;;;;11.85;5.65;;;;;;;11.80;100.00;101189.08;2807854;82;21020;-91
2022/10/19 15:47:09;;;;;;;9.05;5.35;;;;;;;11.66;100.00;101189.22;2846048;81;21106;-90
2022/10/19 15:51:34;;;;;;;7.87;3.15;;;;;;;11.54;100.00;101198.45;2863962;81;21605;-90
2022/10/19 15:55:36;;;;;;;7.97;4.22;;;;;;;11.45;100.00;101200.45;2871098;81;21150;-92
2022/10/19 15:59:37;;;;;;;4.92;2.60;;;;;;;11.27;100.00;101212.78;2857114;81;21085;-92
2022/10/19 16:03:38;;;;;;;7.97;3.52;;;;;;;11.12;100.00;101201.86;2837723;80;21690;-92
2022/10/19 16:07:40;;;;;;;3.45;2.12;;;;;;;11.05;100.00;101208.09;2729090;83;21137;-92
2022/10/19 16:11:42;;;;;;;6.95;3.52;;;;;;;10.91;100.00;101210.87;2853837;81;21088;-90
2022/10/19 16:15:43;;;;;;;7.22;3.80;;;;;;;10.96;100.00;101218.89;2870514;82;21083;-92
2022/10/19 16:19:45;;;;;;;4.10;2.70;;;;;;;10.79;100.00;101220.52;2739571;85;21072;-91
2022/10/19 16:23:46;;;;;;;4.85;3.05;;;;;;;10.80;100.00;101224.88;2786876;84;21103;-89
2022/10/19 16:27:47;;;;;;;8.20;3.65;;;;;;;10.80;100.00;101227.08;2784379;83;21135;-89
2022/10/19 16:31:50;;;;;;;5.00;4.22;;;;;;;10.91;100.00;101230.83;2775916;83;21167;-88
2022/10/19 16:35:51;;;;;;;5.78;4.10;;;;;;;11.03;100.00;101234.45;2839268;82;21028;-92
2022/10/19 16:39:52;;;;;;;9.63;3.65;;;;;;;11.12;100.00;101245.33;2841249;80;21678;-91
2022/10/19 16:43:55;;;;;;;4.87;3.33;;;;;;;11.17;100.00;101246.32;2874899;80;21759;-92
2022/10/19 16:47:56;;;;;;;7.00;4.53;;;;;;;11.22;100.00;101240.69;2815227;81;21039;-93
2022/10/19 16:51:59;;;;;;;7.08;4.58;;;;;;;11.32;100.00;101240.89;2869285;80;21501;-96
2022/10/19 16:56:11;;;;;;;9.40;5.10;;;;;;;11.41;100.00;101249.59;2832891;80;21052;-94
2022/10/19 17:00:12;;;;;;;11.33;4.67;;;;;;;11.50;100.00;101244.93;2868520;81;21029;-95
2022/10/19 17:04:16;;;;;;;8.03;4.58;;;;;;;11.54;100.00;101247.74;2875822;81;21018;-96
2022/10/19 17:08:18;;;;;;;8.03;4.62;;;;;;;11.32;100.00;101257.74;2804060;82;21082;-96
2022/10/19 17:12:19;;;;;;;5.03;3.70;;;;;;;11.32;100.00;101263.07;2855012;81;21018;-96
2022/10/19 17:16:22;;;;;;;4.28;3.02;;;;;;;11.34;100.00;101272.27;2848472;81;21039;-95
2022/10/19 17:20:23;;;;;;;6.30;4.12;;;;;;;11.39;100.00;101266.12;2850335;81;21013;-96
2022/10/19 17:24:24;;;;;;;6.65;4.47;;;;;;;11.50;100.00;101280.06;2862414;80;21008;-94
2022/10/19 17:28:26;;;;;;;5.05;4.17;;;;;;;11.56;100.00;101283.12;2874752;81;21046;-95
2022/10/19 17:32:27;;;;;;;9.40;5.60;;;;;;;11.54;100.00;101294.37;2875866;80;21101;-90
2022/10/19 17:36:33;;;;;;;8.88;5.85;;;;;;;11.49;100.00;101289.86;2853540;81;21054;-94
2022/10/19 17:40:34;;;;;;;14.20;8.63;;;;;;;11.38;100.00;101296.39;2868290;80;21422;-96
2022/10/19 17:44:35;;;;;;;11.60;8.30;;;;;;;11.29;100.00;101296.09;2850488;81;21042;-96
2022/10/19 17:48:38;;;;;;;18.25;10.48;;;;;;;11.19;100.00;101307.48;2858707;81;21038;-91
2022/10/19 17:52:40;;;;;;;13.78;8.55;;;;;;;11.08;100.00;101309.05;2800481;83;21092;-96
2022/10/19 17:56:43;;;;;;;14.25;8.38;;;;;;;11.04;100.00;101307.55;2778959;83;21664;-92
2022/10/19 18:00:45;;;;;;;17.82;10.15;;;;;;;10.91;100.00;101303.54;2773960;85;21109;-94
2022/10/19 18:04:47;;;;;;;14.65;9.25;;;;;;;10.75;100.00;101304.19;2728621;84;21630;-92
2022/10/19 18:08:52;;;;;;;18.90;9.60;;;;;;;10.63;100.00;101313.84;2777411;84;21549;-93
2022/10/19 18:12:53;;;;;;;15.93;9.20;;;;;;;10.49;100.00;101316.91;2872775;82;21008;-94
2022/10/19 18:16:54;;;;;;;21.27;9.13;;;;;;;10.50;100.00;101317.28;2768319;82;21040;-92
2022/10/19 18:20:56;;;;;;;17.12;10.30;;;;;;;10.56;100.00;101323.56;2710243;83;21100;-92
2022/10/19 18:24:57;;;;;;;16.55;8.75;;;;;;;10.70;100.00;101329.30;2807546;83;21077;-92
2022/10/19 18:29:01;;;;;;;19.60;10.28;;;;;;;10.80;100.00;101328.67;2843571;81;21089;-92
2022/10/19 18:33:04;;;;;;;16.23;9.95;;;;;;;10.88;100.00;101327.70;2850101;81;21022;-91
2022/10/19 18:37:06;;;;;;;15.08;10.13;;;;;;;10.84;100.00;101326.21;2851944;82;21042;-93
2022/10/19 18:41:10;;;;;;;9.00;7.67;;;;;;;10.82;100.00;101329.45;2865697;81;21020;-91
2022/10/19 18:45:11;;;;;;;10.25;7.60;;;;;;;10.86;100.00;101334.45;2848921;81;21585;-92
2022/10/19 18:49:13;;;;;;;15.43;11.45;;;;;;;10.95;100.00;101332.98;2831757;82;20999;-91
2022/10/19 18:53:15;;;;;;;18.87;12.82;;;;;;;10.82;100.00;101328.13;2852823;81;29573;-92
2022/10/19 18:57:16;;;;;;;18.25;12.53;;;;;;;10.75;100.00;101330.80;2863039;81;21053;-92